Time;durP1;ratioP1;P1;durP2;ratioP2;P2;SDS_P1;SDS_P2;PMS_P1;PMS_P2;Temp;Humidity;BMP_temperature;BMP_pressure;BME280_temperature;BME280_humidity;BME280_pressure;Samples;Min_cycle;Max_cycle;Signal;HPM_P1;HPM_P2
2021/12/14 00:00:56;;;;;;;14.70;9.13;;;10.60;99.90;;;;;;5094002;28;20020;-79
2021/12/14 00:03:25;;;;;;;13.20;8.20;;;10.60;99.90;;;;;;5093468;28;20519;-78
2021/12/14 00:05:52;;;;;;;14.85;8.50;;;10.60;99.90;;;;;;5091575;28;20024;-77
2021/12/14 00:08:18;;;;;;;11.20;7.85;;;10.60;99.90;;;;;;5093937;28;20024;-77
2021/12/14 00:11:08;;;;;;;13.38;8.98;;;10.60;99.90;;;;;;5093524;28;20024;-77
2021/12/14 00:16:07;;;;;;;13.57;9.03;;;10.50;99.90;;;;;;5072889;28;20396;-77
2021/12/14 00:18:34;;;;;;;15.48;9.07;;;10.50;99.90;;;;;;5072733;28;20320;-78
2021/12/14 00:21:21;;;;;;;11.90;8.73;;;10.50;99.90;;;;;;5072607;28;20071;-77
2021/12/14 00:24:07;;;;;;;15.73;10.30;;;10.50;99.90;;;;;;5072908;28;20066;-78
2021/12/14 00:26:38;;;;;;;14.90;10.57;;;10.50;99.90;;;;;;5072983;28;20017;-78
2021/12/14 00:29:05;;;;;;;12.77;9.32;;;10.50;99.90;;;;;;5090072;28;20028;-77
2021/12/14 00:31:31;;;;;;;14.57;9.68;;;10.50;99.90;;;;;;5093078;28;20024;-77
2021/12/14 00:34:01;;;;;;;16.23;10.02;;;10.50;99.90;;;;;;5092402;28;20028;-77
2021/12/14 00:36:27;;;;;;;20.90;11.45;;;10.50;99.90;;;;;;5093388;28;20024;-77
2021/12/14 00:38:56;;;;;;;13.95;10.23;;;10.50;99.90;;;;;;5092877;28;20105;-78
2021/12/14 00:41:27;;;;;;;16.40;9.60;;;10.50;99.90;;;;;;5092880;28;20024;-78
2021/12/14 00:43:53;;;;;;;16.02;10.40;;;10.50;99.90;;;;;;5087184;28;20484;-78
2021/12/14 00:46:19;;;;;;;14.52;10.13;;;10.50;99.90;;;;;;5072661;28;20074;-78
2021/12/14 00:48:46;;;;;;;15.60;10.30;;;10.50;99.90;;;;;;5081965;28;20402;-79
2021/12/14 00:51:13;;;;;;;15.07;9.70;;;10.50;99.90;;;;;;5089503;28;20051;-78
2021/12/14 00:53:40;;;;;;;17.85;10.63;;;10.50;99.90;;;;;;5069883;28;20539;-78
2021/12/14 00:56:09;;;;;;;17.88;9.52;;;10.40;99.90;;;;;;5072539;28;20052;-78
2021/12/14 00:58:36;;;;;;;13.68;9.50;;;10.50;99.90;;;;;;5085590;28;20368;-78
2021/12/14 01:01:07;;;;;;;16.38;9.30;;;10.40;99.90;;;;;;5092113;28;20032;-78
2021/12/14 01:03:37;;;;;;;13.68;9.82;;;10.40;99.90;;;;;;5093198;28;20032;-79
2021/12/14 01:06:09;;;;;;;16.08;10.60;;;10.40;99.90;;;;;;5092846;28;20400;-77
2021/12/14 01:08:39;;;;;;;14.20;10.02;;;10.40;99.90;;;;;;5090845;28;20020;-78
2021/12/14 01:11:19;;;;;;;16.60;9.27;;;10.40;99.90;;;;;;5092881;28;20063;-78
2021/12/14 01:13:56;;;;;;;16.20;10.57;;;10.40;99.90;;;;;;5079721;28;20332;-79
2021/12/14 01:16:35;;;;;;;16.98;9.52;;;10.40;99.90;;;;;;5071554;28;20028;-78
2021/12/14 01:19:13;;;;;;;17.05;10.43;;;10.40;99.90;;;;;;5070863;28;20017;-78
2021/12/14 01:25:09;;;;;;;14.25;10.32;;;10.40;99.90;;;;;;5071990;28;20484;-78
2021/12/14 01:27:13;;;;;;;14.82;10.23;;;10.40;99.90;;;;;;5068934;28;20119;-78
2021/12/14 01:29:39;;;;;;;15.77;10.32;;;10.50;99.90;;;;;;5092032;28;20024;-78
2021/12/14 01:32:06;;;;;;;17.02;10.85;;;10.40;99.90;;;;;;5093065;28;20028;-77
2021/12/14 01:34:32;;;;;;;16.58;10.55;;;10.40;99.90;;;;;;5093210;28;20039;-77
2021/12/14 01:37:03;;;;;;;18.60;10.88;;;10.40;99.90;;;;;;5093197;28;20099;-77
2021/12/14 01:42:24;;;;;;;17.92;10.98;;;10.40;99.90;;;;;;5096057;28;20024;-77
2021/12/14 01:44:58;;;;;;;19.98;11.40;;;10.40;99.90;;;;;;5095191;28;20032;-77
2021/12/14 01:47:32;;;;;;;17.10;10.77;;;10.40;99.90;;;;;;5096349;28;20028;-77
2021/12/14 01:49:57;;;;;;;18.42;11.18;;;10.40;99.90;;;;;;5096666;28;20486;-77
2021/12/14 01:52:30;;;;;;;17.95;10.80;;;10.40;99.90;;;;;;5096975;28;20100;-77
2021/12/14 01:55:06;;;;;;;15.32;11.07;;;10.40;99.90;;;;;;5096303;28;20020;-77
2021/12/14 01:57:33;;;;;;;17.13;10.93;;;10.30;99.90;;;;;;5093641;28;20037;-77
2021/12/14 02:00:01;;;;;;;16.40;10.77;;;10.40;99.90;;;;;;5075973;28;20547;-77
2021/12/14 02:02:42;;;;;;;18.08;11.38;;;10.30;99.90;;;;;;5075591;28;20037;-76
2021/12/14 02:05:26;;;;;;;17.80;11.55;;;10.30;99.90;;;;;;5076010;28;20052;-76
2021/12/14 02:07:53;;;;;;;17.60;12.35;;;10.30;99.90;;;;;;5083466;28;20419;-76
2021/12/14 02:10:35;;;;;;;17.88;12.10;;;10.40;99.90;;;;;;5095486;28;20027;-76
2021/12/14 02:13:01;;;;;;;17.52;11.48;;;10.30;99.90;;;;;;5095472;28;20349;-76
2021/12/14 02:15:32;;;;;;;21.05;13.13;;;10.40;99.90;;;;;;5095142;28;20077;-77
2021/12/14 02:18:04;;;;;;;20.90;12.50;;;10.30;99.90;;;;;;5096379;28;20468;-77
2021/12/14 02:20:35;;;;;;;21.50;13.23;;;10.30;99.90;;;;;;5095562;28;20024;-77
2021/12/14 02:23:01;;;;;;;20.17;12.55;;;10.30;99.90;;;;;;5090851;28;20028;-77
2021/12/14 02:25:27;;;;;;;22.45;13.40;;;10.30;99.90;;;;;;5094016;28;20020;-76
2021/12/14 02:27:55;;;;;;;18.33;12.23;;;10.40;99.90;;;;;;5093173;28;20460;-76
2021/12/14 02:30:24;;;;;;;26.23;13.93;;;10.40;99.90;;;;;;5083042;28;20111;-77
2021/12/14 02:32:51;;;;;;;20.08;12.75;;;10.30;99.90;;;;;;5096091;28;20114;-77
2021/12/14 02:35:22;;;;;;;20.65;12.20;;;10.30;99.90;;;;;;5095793;28;20467;-76
2021/12/14 02:37:52;;;;;;;21.67;13.15;;;10.40;99.90;;;;;;5094260;28;20024;-76
2021/12/14 02:41:11;;;;;;;22.35;13.65;;;10.40;99.90;;;;;;5095998;28;20107;-76
2021/12/14 02:43:26;;;;;;;24.42;13.93;;;10.40;99.90;;;;;;5087643;28;20032;-76
2021/12/14 02:45:59;;;;;;;23.77;13.00;;;10.40;99.90;;;;;;5074119;28;20032;-76
2021/12/14 02:48:25;;;;;;;23.70;13.90;;;10.40;99.90;;;;;;5098751;28;20038;-76
2021/12/14 02:50:51;;;;;;;20.10;13.90;;;10.40;99.90;;;;;;5115202;28;20028;-76
2021/12/14 02:53:17;;;;;;;23.65;13.82;;;10.30;99.90;;;;;;5101162;28;20028;-76
2021/12/14 02:55:43;;;;;;;22.90;13.95;;;10.30;99.90;;;;;;5094466;28;20039;-77
2021/12/14 02:58:09;;;;;;;23.00;13.82;;;10.30;99.90;;;;;;5092884;28;20107;-78
2021/12/14 03:00:43;;;;;;;23.60;14.30;;;10.30;99.90;;;;;;5095022;28;20420;-79
2021/12/14 03:03:10;;;;;;;26.65;15.52;;;10.40;99.90;;;;;;5094122;28;20513;-79
2021/12/14 03:05:39;;;;;;;30.42;16.27;;;10.40;99.90;;;;;;5093925;28;20364;-79
2021/12/14 03:08:22;;;;;;;25.10;14.32;;;10.40;99.90;;;;;;5078348;28;20419;-79
2021/12/14 03:11:11;;;;;;;26.25;15.23;;;10.40;99.90;;;;;;5074675;28;20380;-78
2021/12/14 03:13:48;;;;;;;29.42;15.85;;;10.40;99.90;;;;;;5103298;28;20463;-79
2021/12/14 03:16:19;;;;;;;26.33;15.70;;;10.40;99.90;;;;;;5108740;28;20027;-78
2021/12/14 03:18:48;;;;;;;29.77;16.15;;;10.40;99.90;;;;;;5073671;28;20503;-78
2021/12/14 03:21:35;;;;;;;26.60;16.60;;;10.30;99.90;;;;;;5074811;28;20104;-78
2021/12/14 03:24:11;;;;;;;27.35;16.48;;;10.30;99.90;;;;;;5074882;28;20064;-78
2021/12/14 03:26:40;;;;;;;29.15;18.05;;;10.30;99.90;;;;;;5073072;28;20035;-78
2021/12/14 03:29:19;;;;;;;30.15;17.20;;;10.30;99.90;;;;;;5084345;28;20024;-77
2021/12/14 03:31:48;;;;;;;33.75;17.02;;;10.30;99.90;;;;;;5094931;28;20028;-78
2021/12/14 03:34:24;;;;;;;32.15;17.10;;;10.40;99.90;;;;;;5101331;28;20032;-78
2021/12/14 03:37:04;;;;;;;35.40;17.60;;;10.30;99.90;;;;;;5113850;28;20019;-78
2021/12/14 03:39:35;;;;;;;28.65;17.30;;;10.30;99.90;;;;;;5115156;28;20039;-77
2021/12/14 03:42:04;;;;;;;29.05;16.35;;;10.20;99.90;;;;;;5109620;28;20476;-78
2021/12/14 03:44:36;;;;;;;27.77;17.88;;;10.20;99.90;;;;;;5094035;28;20149;-78
2021/12/14 03:47:05;;;;;;;26.85;16.27;;;10.20;99.90;;;;;;5086529;28;20061;-77
2021/12/14 03:49:35;;;;;;;31.85;18.23;;;10.10;99.90;;;;;;5072685;28;20032;-77
2021/12/14 03:52:07;;;;;;;27.73;17.73;;;10.10;99.90;;;;;;5074131;28;20036;-77
2021/12/14 03:54:33;;;;;;;29.67;18.10;;;10.10;99.90;;;;;;5073512;28;20043;-77
2021/12/14 03:56:59;;;;;;;27.02;17.50;;;10.00;99.90;;;;;;5103920;28;20032;-77
2021/12/14 03:59:29;;;;;;;32.58;18.63;;;10.10;99.90;;;;;;5114659;28;20026;-77
2021/12/14 04:01:57;;;;;;;31.25;19.05;;;10.00;99.90;;;;;;5077473;28;20039;-77
2021/12/14 04:04:27;;;;;;;37.20;20.20;;;10.00;99.90;;;;;;5073412;28;20032;-77
2021/12/14 04:06:57;;;;;;;28.27;16.95;;;9.90;99.90;;;;;;5073788;28;20457;-77
2021/12/14 04:09:26;;;;;;;30.63;17.80;;;9.90;99.90;;;;;;5073221;28;20025;-77
2021/12/14 04:11:52;;;;;;;32.70;18.17;;;9.90;99.90;;;;;;5073692;28;20029;-77
2021/12/14 04:14:19;;;;;;;30.98;18.17;;;9.90;99.90;;;;;;5086799;28;20077;-77
2021/12/14 04:16:49;;;;;;;29.77;17.55;;;9.90;99.90;;;;;;5108158;28;20032;-77
2021/12/14 04:19:21;;;;;;;32.70;18.35;;;9.90;99.90;;;;;;5092929;28;20043;-77
2021/12/14 04:21:48;;;;;;;28.35;16.50;;;9.90;99.90;;;;;;5092289;28;20075;-77
2021/12/14 04:24:18;;;;;;;33.85;17.38;;;10.00;99.90;;;;;;5091606;28;20052;-78
2021/12/14 04:26:46;;;;;;;33.25;18.42;;;10.00;99.90;;;;;;5092559;28;20625;-77
2021/12/14 04:29:12;;;;;;;36.67;18.90;;;10.00;99.90;;;;;;5093961;28;20023;-77
2021/12/14 04:31:40;;;;;;;34.22;16.75;;;10.00;99.90;;;;;;5093250;28;20087;-77
2021/12/14 04:34:06;;;;;;;35.65;17.65;;;10.00;99.90;;;;;;5097875;28;20067;-77
2021/12/14 04:36:33;;;;;;;33.53;18.17;;;9.90;99.90;;;;;;5092377;28;20093;-77
2021/12/14 04:39:30;;;;;;;38.53;19.02;;;10.00;99.90;;;;;;5093659;28;20024;-77
2021/12/14 04:53:23;;;;;;;34.95;17.27;;;9.90;99.90;;;;;;5092693;28;20524;-77
2021/12/14 04:55:53;;;;;;;31.00;16.20;;;9.90;99.90;;;;;;5093090;28;20028;-77
2021/12/14 04:58:35;;;;;;;33.13;16.52;;;9.80;99.90;;;;;;5092966;28;20042;-77
2021/12/14 05:01:04;;;;;;;33.72;16.75;;;9.80;99.90;;;;;;5092757;28;20028;-77
2021/12/14 05:03:43;;;;;;;32.53;16.83;;;9.80;99.90;;;;;;5093080;28;20036;-76
2021/12/14 05:06:14;;;;;;;33.90;16.83;;;9.80;99.90;;;;;;5092413;28;20074;-77
2021/12/14 05:11:14;;;;;;;32.92;16.02;;;9.80;99.90;;;;;;5113684;28;20028;-77
2021/12/14 05:13:50;;;;;;;31.48;15.27;;;9.80;99.90;;;;;;5091504;28;20017;-77
2021/12/14 05:16:19;;;;;;;34.35;16.90;;;9.90;99.90;;;;;;5071603;28;20027;-78
2021/12/14 05:18:47;;;;;;;32.00;15.95;;;9.80;99.90;;;;;;5072991;28;20032;-78
2021/12/14 05:21:20;;;;;;;37.53;17.67;;;9.80;99.90;;;;;;5072638;28;20028;-77
2021/12/14 05:23:46;;;;;;;32.50;16.35;;;9.80;99.90;;;;;;5072265;28;20075;-77
2021/12/14 05:26:15;;;;;;;35.08;16.02;;;9.90;99.90;;;;;;5079552;28;20055;-78
2021/12/14 05:28:43;;;;;;;36.05;16.63;;;9.90;99.90;;;;;;5091455;28;20430;-78
2021/12/14 05:31:09;;;;;;;35.42;16.35;;;9.90;99.90;;;;;;5089618;28;20705;-78
2021/12/14 05:33:36;;;;;;;33.03;16.40;;;9.80;99.90;;;;;;5106467;28;20476;-78
2021/12/14 05:36:07;;;;;;;29.48;15.38;;;9.80;99.90;;;;;;5080865;28;20384;-77
2021/12/14 05:44:17;;;;;;;37.55;17.17;;;9.80;99.90;;;;;;5072636;28;20086;-77
2021/12/14 05:46:50;;;;;;;;;;;9.80;99.90;;;;;;5076669;28;20027;-74
2021/12/14 05:49:27;;;;;;;32.00;16.25;;;9.80;99.90;;;;;;5072633;28;19904;-77
2021/12/14 05:51:55;;;;;;;36.33;18.10;;;9.80;99.90;;;;;;5072279;28;20438;-77
2021/12/14 05:54:31;;;;;;;31.00;17.48;;;9.80;99.90;;;;;;5072469;28;20025;-76
2021/12/14 05:56:59;;;;;;;31.65;16.13;;;9.80;99.90;;;;;;5080760;28;20043;-77
2021/12/14 05:59:28;;;;;;;32.80;16.20;;;9.80;99.90;;;;;;5092552;28;20023;-76
2021/12/14 06:01:56;;;;;;;32.78;16.83;;;9.80;99.90;;;;;;5089155;28;20039;-76
2021/12/14 06:04:26;;;;;;;30.60;16.10;;;9.80;99.90;;;;;;5090514;28;20754;-77
2021/12/14 06:06:54;;;;;;;33.65;17.38;;;9.70;99.90;;;;;;5089582;28;20081;-76
2021/12/14 06:09:24;;;;;;;28.67;15.50;;;9.70;99.90;;;;;;5092584;28;20058;-77
2021/12/14 06:11:55;;;;;;;28.77;15.25;;;9.80;99.90;;;;;;5090907;28;20487;-77
2021/12/14 06:14:24;;;;;;;32.92;17.60;;;9.70;99.90;;;;;;5098628;28;20063;-76
2021/12/14 06:16:56;;;;;;;36.13;16.70;;;9.70;99.90;;;;;;5071769;28;20112;-77
2021/12/14 06:19:24;;;;;;;37.03;17.02;;;9.70;99.90;;;;;;5071605;28;20020;-77
2021/12/14 06:21:59;;;;;;;34.00;17.23;;;9.70;99.90;;;;;;5072208;28;20115;-77
2021/12/14 06:24:28;;;;;;;31.67;16.77;;;9.70;99.90;;;;;;5071193;28;20064;-77
2021/12/14 06:26:56;;;;;;;31.38;16.60;;;9.70;99.90;;;;;;5080088;28;20406;-77
2021/12/14 06:29:36;;;;;;;34.10;17.40;;;9.70;99.90;;;;;;5094954;28;20028;-78
2021/12/14 06:32:07;;;;;;;33.80;17.60;;;9.60;99.90;;;;;;5074243;28;20052;-77
2021/12/14 06:34:33;;;;;;;32.35;18.38;;;9.70;99.90;;;;;;5074139;28;20028;-76
2021/12/14 06:41:04;;;;;;;39.40;18.20;;;9.60;99.90;;;;;;5013531;28;20030;-77
2021/12/14 06:43:57;;;;;;;32.42;18.45;;;9.60;99.90;;;;;;5035052;28;20068;-77
2021/12/14 06:46:36;;;;;;;33.97;17.38;;;9.70;99.90;;;;;;5073684;28;20032;-77
2021/12/14 06:49:09;;;;;;;35.58;19.02;;;9.60;99.90;;;;;;5074068;28;20012;-77
2021/12/14 06:51:36;;;;;;;36.67;17.73;;;9.60;99.90;;;;;;5075482;28;20016;-78
2021/12/14 06:54:12;;;;;;;34.97;18.05;;;9.60;99.90;;;;;;5075217;28;20048;-77
2021/12/14 06:56:39;;;;;;;39.10;19.88;;;9.60;99.90;;;;;;5079832;28;20022;-77
2021/12/14 06:59:10;;;;;;;38.00;18.10;;;9.60;99.90;;;;;;5095184;28;20028;-77
2021/12/14 07:01:48;;;;;;;37.13;19.13;;;9.60;99.90;;;;;;5090042;28;20028;-77
2021/12/14 07:04:19;;;;;;;40.90;20.08;;;9.60;99.90;;;;;;5084490;28;20079;-77
2021/12/14 07:06:49;;;;;;;37.72;18.92;;;9.60;99.90;;;;;;5083259;28;20019;-77
2021/12/14 07:09:18;;;;;;;40.22;19.88;;;9.60;99.90;;;;;;5083625;28;20040;-77
2021/12/14 07:11:55;;;;;;;39.65;20.40;;;9.50;99.90;;;;;;5078804;28;20021;-77
2021/12/14 07:14:26;;;;;;;36.45;20.02;;;9.60;99.90;;;;;;5074903;28;20020;-78
2021/12/14 07:16:55;;;;;;;40.67;21.30;;;9.60;99.90;;;;;;5074954;28;20020;-77
2021/12/14 07:19:41;;;;;;;37.13;19.70;;;9.70;99.90;;;;;;5094564;28;20032;-77
2021/12/14 07:22:32;;;;;;;36.17;18.63;;;9.60;99.90;;;;;;5093473;28;20475;-75
2021/12/14 07:25:12;;;;;;;40.33;20.77;;;9.60;99.90;;;;;;5083549;28;20109;-77
2021/12/14 07:27:45;;;;;;;39.22;21.92;;;9.60;99.90;;;;;;5084192;28;20055;-77
2021/12/14 07:30:20;;;;;;;39.58;20.98;;;9.60;99.90;;;;;;5072083;28;20025;-77
2021/12/14 07:33:03;;;;;;;41.50;20.25;;;9.70;99.90;;;;;;5074593;28;20025;-77
2021/12/14 07:35:32;;;;;;;40.97;21.58;;;9.70;99.90;;;;;;5073729;28;20020;-77
2021/12/14 07:38:04;;;;;;;36.75;19.45;;;9.70;99.90;;;;;;5074277;28;20024;-77
2021/12/14 07:40:39;;;;;;;42.95;19.95;;;9.80;99.90;;;;;;5072563;28;20546;-78
2021/12/14 07:43:27;;;;;;;37.15;18.77;;;9.80;99.90;;;;;;5086153;28;20024;-77
2021/12/14 07:45:55;;;;;;;42.85;20.02;;;9.70;99.90;;;;;;5094906;28;20023;-78
2021/12/14 07:48:36;;;;;;;41.08;20.10;;;9.70;99.90;;;;;;5091399;28;20375;-77
2021/12/14 07:51:02;;;;;;;41.03;20.15;;;9.80;99.90;;;;;;5074245;28;20062;-77
2021/12/14 07:53:40;;;;;;;39.58;20.85;;;9.80;99.90;;;;;;5079451;28;20045;-77
2021/12/14 07:56:08;;;;;;;38.33;18.65;;;9.80;99.90;;;;;;5093189;28;20027;-77
2021/12/14 07:58:42;;;;;;;43.28;20.73;;;9.80;99.90;;;;;;5076666;28;20416;-78
2021/12/14 08:01:08;;;;;;;38.85;19.92;;;9.80;99.90;;;;;;5072574;28;20503;-77
2021/12/14 08:03:36;;;;;;;37.90;19.05;;;9.80;99.90;;;;;;5073446;28;20037;-80
2021/12/14 08:06:09;;;;;;;46.97;21.10;;;9.80;99.90;;;;;;5077420;28;20028;-79
2021/12/14 08:08:45;;;;;;;44.13;20.42;;;9.80;99.90;;;;;;5075021;28;20028;-79
2021/12/14 08:11:41;;;;;;;38.42;20.38;;;9.80;99.90;;;;;;5092069;28;20452;-79
2021/12/14 08:14:24;;;;;;;42.33;21.77;;;9.80;99.90;;;;;;5092938;28;20020;-80
2021/12/14 08:17:06;;;;;;;40.90;18.55;;;9.90;99.90;;;;;;5093981;28;20101;-80
2021/12/14 08:19:33;;;;;;;42.77;20.60;;;9.90;99.90;;;;;;5093759;28;20073;-80
2021/12/14 08:22:11;;;;;;;40.88;20.08;;;9.80;99.90;;;;;;5094022;28;20266;-80
2021/12/14 08:24:37;;;;;;;38.97;19.40;;;9.80;99.90;;;;;;5084075;28;20043;-79
2021/12/14 08:27:06;;;;;;;43.85;20.90;;;9.90;99.90;;;;;;5077153;28;20043;-79
2021/12/14 08:29:35;;;;;;;43.03;20.15;;;10.00;99.90;;;;;;5093749;28;20023;-80
2021/12/14 08:32:09;;;;;;;41.72;21.48;;;9.90;99.90;;;;;;5091735;28;20447;-80
2021/12/14 08:34:40;;;;;;;46.25;21.52;;;9.90;99.90;;;;;;5092109;28;20032;-79
2021/12/14 08:37:13;;;;;;;39.55;19.65;;;10.00;99.90;;;;;;5087443;28;20020;-80
2021/12/14 08:40:07;;;;;;;43.78;20.88;;;10.00;99.90;;;;;;5079649;28;20229;-79
2021/12/14 08:43:02;;;;;;;41.83;20.65;;;10.00;99.90;;;;;;5074203;28;20466;-80
2021/12/14 08:45:26;;;;;;;40.88;20.70;;;10.00;99.90;;;;;;5073026;28;20495;-80
2021/12/14 08:48:07;;;;;;;45.78;21.63;;;10.00;99.90;;;;;;5071408;28;20052;-78
2021/12/14 08:50:40;;;;;;;40.22;20.27;;;10.00;99.90;;;;;;5085388;28;20439;-80
2021/12/14 08:53:08;;;;;;;42.25;19.23;;;10.00;99.90;;;;;;5072098;28;20119;-80
2021/12/14 08:55:36;;;;;;;45.53;20.45;;;10.10;99.90;;;;;;5075037;28;20022;-81
2021/12/14 08:58:04;;;;;;;44.92;21.27;;;10.00;99.90;;;;;;5082890;28;20024;-80
2021/12/14 09:00:40;;;;;;;44.90;21.65;;;10.00;99.90;;;;;;5090990;28;20077;-80
2021/12/14 09:03:10;;;;;;;43.90;21.50;;;10.00;99.90;;;;;;5083021;28;20043;-80
2021/12/14 09:05:46;;;;;;;43.85;20.70;;;10.00;99.90;;;;;;5073000;28;20025;-80
2021/12/14 09:08:13;;;;;;;45.78;21.92;;;10.10;99.90;;;;;;5071676;28;20107;-80
2021/12/14 09:10:41;;;;;;;44.28;20.65;;;10.00;99.90;;;;;;5072045;28;20052;-80
2021/12/14 09:13:10;;;;;;;40.67;19.67;;;10.00;99.90;;;;;;5072490;28;20372;-80
2021/12/14 09:15:41;;;;;;;47.35;22.33;;;9.90;99.90;;;;;;5071466;28;20055;-80
2021/12/14 09:18:07;;;;;;;44.38;21.10;;;10.10;99.90;;;;;;5088221;28;20036;-79
2021/12/14 09:20:41;;;;;;;45.80;22.00;;;10.00;99.90;;;;;;5092673;28;20017;-80
2021/12/14 09:23:14;;;;;;;51.22;22.85;;;10.00;99.90;;;;;;5090273;28;20067;-80
2021/12/14 09:25:40;;;;;;;52.33;23.80;;;10.00;99.90;;;;;;5072229;28;20037;-80
2021/12/14 09:28:07;;;;;;;45.90;21.88;;;10.00;99.90;;;;;;5082469;28;20112;-81
2021/12/14 09:30:36;;;;;;;49.22;22.20;;;10.10;99.90;;;;;;5092228;28;20027;-80
2021/12/14 09:33:03;;;;;;;53.00;23.60;;;10.00;99.90;;;;;;5092974;28;20021;-79
2021/12/14 09:35:34;;;;;;;50.10;22.80;;;10.00;99.90;;;;;;5093153;28;20127;-80
2021/12/14 09:38:00;;;;;;;51.83;23.25;;;10.10;99.90;;;;;;5090008;28;20039;-77
2021/12/14 09:40:32;;;;;;;47.55;21.65;;;10.10;99.90;;;;;;5078729;28;20028;-78
2021/12/14 09:42:58;;;;;;;52.00;24.50;;;10.20;99.90;;;;;;5060737;28;20040;-76
2021/12/14 09:45:33;;;;;;;43.78;20.98;;;10.20;99.90;;;;;;5089867;28;20016;-76
2021/12/14 09:48:01;;;;;;;49.33;23.00;;;10.10;99.90;;;;;;5091468;28;20054;-77
2021/12/14 09:50:30;;;;;;;48.22;23.83;;;10.10;99.90;;;;;;5089073;28;20020;-76
2021/12/14 09:52:58;;;;;;;54.03;24.48;;;10.20;99.90;;;;;;5090412;28;20036;-76
2021/12/14 09:55:29;;;;;;;48.97;22.90;;;10.10;99.90;;;;;;5090463;28;20048;-77
2021/12/14 09:57:58;;;;;;;54.17;23.15;;;10.10;99.90;;;;;;5090726;28;20124;-77
2021/12/14 10:00:30;;;;;;;47.85;23.42;;;10.10;99.90;;;;;;5090336;28;20448;-77
2021/12/14 10:02:58;;;;;;;54.00;24.10;;;10.10;99.90;;;;;;5095449;28;20040;-76
2021/12/14 10:05:30;;;;;;;47.90;23.63;;;10.10;99.90;;;;;;5093464;28;20020;-76
2021/12/14 10:07:58;;;;;;;;;;;10.10;99.90;;;;;;5096100;28;20062;-75
2021/12/14 10:10:25;;;;;;;50.13;23.58;;;10.10;99.90;;;;;;5094836;28;19904;-76
2021/12/14 10:12:56;;;;;;;53.30;24.75;;;10.10;99.90;;;;;;5085382;28;20125;-75
2021/12/14 10:15:21;;;;;;;52.03;23.55;;;10.20;99.90;;;;;;5091677;28;20024;-76
2021/12/14 10:17:47;;;;;;;52.35;21.83;;;10.20;99.90;;;;;;5095622;28;20069;-77
2021/12/14 10:20:21;;;;;;;50.10;24.33;;;10.20;99.90;;;;;;5093446;28;20073;-77
2021/12/14 10:22:50;;;;;;;47.58;23.15;;;10.30;99.90;;;;;;5093992;28;20507;-77
2021/12/14 10:25:19;;;;;;;55.40;25.30;;;10.20;99.90;;;;;;5088892;28;20070;-76
2021/12/14 10:27:46;;;;;;;63.47;28.88;;;10.30;99.90;;;;;;5083586;28;20032;-76
2021/12/14 10:30:25;;;;;;;56.58;25.27;;;10.30;99.90;;;;;;5084653;28;20016;-77
2021/12/14 10:32:51;;;;;;;57.58;26.27;;;10.30;99.90;;;;;;5091960;28;20260;-77
2021/12/14 10:35:23;;;;;;;53.05;24.85;;;10.40;99.90;;;;;;5082888;28;20046;-76
2021/12/14 10:37:55;;;;;;;58.60;26.23;;;10.40;99.90;;;;;;5090000;28;20024;-79
2021/12/14 10:43:15;;;;;;;57.08;26.58;;;10.50;99.90;;;;;;5082535;28;20050;-78
2021/12/14 10:46:03;;;;;;;50.20;24.38;;;10.60;99.90;;;;;;5085299;28;20435;-78
2021/12/14 10:48:36;;;;;;;52.30;25.88;;;10.60;99.90;;;;;;5078775;28;20374;-77
2021/12/14 10:51:04;;;;;;;;;;;10.60;99.90;;;;;;5086051;28;20036;-76
2021/12/14 10:53:31;;;;;;;54.75;26.00;;;10.60;99.90;;;;;;5081476;28;19916;-78
2021/12/14 10:56:11;;;;;;;58.03;28.25;;;10.70;99.90;;;;;;5081449;28;20070;-77
2021/12/14 10:58:37;;;;;;;61.38;26.60;;;10.70;99.90;;;;;;5085334;28;20371;-78
2021/12/14 11:01:19;;;;;;;48.92;23.95;;;10.70;99.90;;;;;;5084212;28;20032;-78
2021/12/14 11:03:52;;;;;;;61.60;26.40;;;10.70;99.90;;;;;;5080796;28;20045;-78
2021/12/14 11:06:27;;;;;;;59.65;27.58;;;10.70;99.90;;;;;;5085643;28;20370;-78
2021/12/14 11:11:33;;;;;;;57.57;27.17;;;10.70;99.90;;;;;;5084558;28;20056;-78
2021/12/14 11:14:02;;;;;;;62.42;27.67;;;10.70;99.90;;;;;;5080179;28;20027;-79
2021/12/14 11:19:38;;;;;;;58.95;28.05;;;10.70;99.90;;;;;;5082707;28;20440;-78
2021/12/14 11:22:17;;;;;;;59.65;27.83;;;10.70;99.90;;;;;;5079465;28;20035;-78
2021/12/14 11:24:47;;;;;;;62.55;28.73;;;10.80;99.90;;;;;;5084838;28;20086;-78
2021/12/14 11:27:16;;;;;;;62.50;28.50;;;10.80;99.90;;;;;;5081708;28;20058;-78
2021/12/14 11:29:42;;;;;;;63.13;29.00;;;10.60;99.90;;;;;;5083897;28;20024;-78
2021/12/14 11:32:14;;;;;;;59.35;26.02;;;10.70;99.90;;;;;;5090246;28;20468;-77
2021/12/14 11:34:40;;;;;;;57.88;27.52;;;10.70;99.90;;;;;;5083635;28;20556;-78
2021/12/14 11:37:13;;;;;;;55.20;27.02;;;10.70;99.90;;;;;;5083176;28;20107;-78
2021/12/14 11:39:43;;;;;;;60.15;27.38;;;10.70;99.90;;;;;;5087205;28;20020;-78
2021/12/14 11:42:12;;;;;;;56.80;27.30;;;10.80;99.90;;;;;;5081000;28;20024;-79
2021/12/14 11:44:47;;;;;;;61.03;27.65;;;10.90;99.90;;;;;;5089392;28;20024;-77
2021/12/14 11:50:15;;;;;;;57.10;26.67;;;10.90;99.90;;;;;;5088805;28;20435;-78
2021/12/14 11:52:50;;;;;;;58.85;26.67;;;10.90;99.90;;;;;;5082807;28;20024;-77
2021/12/14 11:55:28;;;;;;;60.30;27.85;;;11.00;99.90;;;;;;5081562;28;20036;-77
2021/12/14 11:58:19;;;;;;;53.65;27.33;;;10.90;99.90;;;;;;5091808;28;20024;-78
2021/12/14 12:00:59;;;;;;;60.33;28.77;;;11.00;99.90;;;;;;5080055;28;20045;-77
2021/12/14 12:03:39;;;;;;;60.92;28.85;;;11.00;99.90;;;;;;5087185;28;20045;-78
2021/12/14 12:06:10;;;;;;;64.43;30.98;;;11.00;99.90;;;;;;5088534;28;20079;-78
2021/12/14 12:11:38;;;;;;;63.72;29.17;;;11.00;99.90;;;;;;5080110;28;20059;-77
2021/12/14 12:14:36;;;;;;;57.13;28.15;;;11.00;99.90;;;;;;5086807;28;20016;-77
2021/12/14 12:17:23;;;;;;;58.83;26.58;;;11.00;99.90;;;;;;5091400;28;20412;-78
2021/12/14 12:20:19;;;;;;;56.95;26.33;;;11.00;99.90;;;;;;5087064;28;20027;-77
2021/12/14 12:22:53;;;;;;;50.92;25.20;;;11.00;99.90;;;;;;5081856;28;20047;-77
2021/12/14 12:25:24;;;;;;;54.50;26.48;;;11.00;99.90;;;;;;5090353;28;20110;-77
2021/12/14 12:28:16;;;;;;;62.67;27.92;;;11.10;99.90;;;;;;5088067;28;20047;-78
2021/12/14 12:30:46;;;;;;;62.47;27.15;;;11.00;99.90;;;;;;5082177;28;20480;-78
2021/12/14 12:33:31;;;;;;;56.08;27.67;;;11.00;99.90;;;;;;5083762;28;20021;-78
2021/12/14 12:36:22;;;;;;;58.67;28.85;;;11.00;99.90;;;;;;5088214;28;20020;-77
2021/12/14 12:38:48;;;;;;;56.55;27.45;;;11.00;99.90;;;;;;5084703;28;20392;-78
2021/12/14 12:41:33;;;;;;;56.60;26.60;;;11.10;99.90;;;;;;5083592;28;20115;-78
2021/12/14 12:44:16;;;;;;;52.75;26.27;;;11.00;99.90;;;;;;5083961;28;20041;-77
2021/12/14 12:46:45;;;;;;;57.92;28.70;;;11.10;99.90;;;;;;5089598;28;20035;-78
2021/12/14 12:49:21;;;;;;;63.33;28.20;;;11.10;99.90;;;;;;5081737;28;20056;-77
2021/12/14 12:51:58;;;;;;;57.17;26.42;;;11.10;99.90;;;;;;5086430;28;20054;-77
2021/12/14 12:54:35;;;;;;;56.88;27.63;;;11.10;99.90;;;;;;5076811;28;20051;-77
2021/12/14 12:57:13;;;;;;;59.42;27.65;;;11.20;99.90;;;;;;5076648;28;20534;-77
2021/12/14 12:59:54;;;;;;;56.67;27.00;;;11.20;99.90;;;;;;5079449;28;20459;-77
2021/12/14 13:02:39;;;;;;;56.92;26.88;;;11.20;99.90;;;;;;5083997;28;20040;-77
2021/12/14 13:05:16;;;;;;;57.97;28.58;;;11.30;99.90;;;;;;5078580;28;20365;-77
2021/12/14 13:07:56;;;;;;;61.08;29.52;;;11.30;99.90;;;;;;5084185;28;20341;-77
2021/12/14 13:10:39;;;;;;;58.70;28.55;;;11.30;99.90;;;;;;5081563;28;20024;-76
2021/12/14 13:13:30;;;;;;;57.13;27.88;;;11.30;99.90;;;;;;5077102;28;20058;-77
2021/12/14 13:16:05;;;;;;;62.60;28.95;;;11.20;99.90;;;;;;5081290;28;20349;-78
2021/12/14 13:18:39;;;;;;;57.38;28.27;;;11.20;99.90;;;;;;5086782;28;20013;-79
2021/12/14 13:21:10;;;;;;;64.05;30.13;;;11.20;99.90;;;;;;5089674;28;20375;-77
2021/12/14 13:23:46;;;;;;;61.55;28.27;;;11.30;99.90;;;;;;5095232;28;20047;-78
2021/12/14 13:26:32;;;;;;;58.40;26.52;;;11.30;99.90;;;;;;5089143;28;20077;-77
2021/12/14 13:29:33;;;;;;;62.10;28.15;;;11.30;99.90;;;;;;5085983;28;20019;-76
2021/12/14 13:32:04;;;;;;;58.83;27.40;;;11.30;99.90;;;;;;5042130;28;20044;-77
2021/12/14 13:34:50;;;;;;;63.20;29.10;;;11.40;99.90;;;;;;5085979;28;20112;-77
2021/12/14 13:37:23;;;;;;;62.45;29.60;;;11.30;99.90;;;;;;5087520;28;20173;-76
2021/12/14 13:39:51;;;;;;;58.72;28.98;;;11.40;99.90;;;;;;5090371;28;20503;-77
2021/12/14 13:42:28;;;;;;;62.72;29.20;;;11.40;99.90;;;;;;5088635;28;20103;-77
2021/12/14 13:44:54;;;;;;;63.63;29.75;;;11.30;99.90;;;;;;5085530;28;20024;-78